sensor_id;sensor_type;location;lat;lon;timestamp;pressure;altitude;pressure_sealevel;temperature;humidity
8653;BME280;4364;52.426;9.424;2023-08-17T00:01:31;101485.13;;;18.16;87.52
8653;BME280;4364;52.426;9.424;2023-08-17T00:03:58;101489.59;;;18.12;88.06
8653;BME280;4364;52.426;9.424;2023-08-17T00:06:24;101496.66;;;18.04;88.20
8653;BME280;4364;52.426;9.424;2023-08-17T00:08:52;101484.22;;;18.07;87.80
8653;BME280;4364;52.426;9.424;2023-08-17T00:11:18;101487.38;;;18.00;88.54
8653;BME280;4364;52.426;9.424;2023-08-17T00:13:45;101482.25;;;18.07;88.52
8653;BME280;4364;52.426;9.424;2023-08-17T00:16:11;101483.41;;;18.06;88.29
8653;BME280;4364;52.426;9.424;2023-08-17T00:18:38;101476.56;;;18.04;88.71
8653;BME280;4364;52.426;9.424;2023-08-17T00:21:06;101468.13;;;18.00;88.74
8653;BME280;4364;52.426;9.424;2023-08-17T00:23:32;101474.13;;;18.02;88.95
8653;BME280;4364;52.426;9.424;2023-08-17T00:25:59;101472.81;;;18.00;88.56
8653;BME280;4364;52.426;9.424;2023-08-17T00:28:25;101476.28;;;17.91;89.63
8653;BME280;4364;52.426;9.424;2023-08-17T00:30:52;101477.41;;;18.04;88.78
8653;BME280;4364;52.426;9.424;2023-08-17T00:33:18;101480.75;;;18.01;88.81
8653;BME280;4364;52.426;9.424;2023-08-17T00:35:46;101480.84;;;18.10;88.79
8653;BME280;4364;52.426;9.424;2023-08-17T00:38:12;101476.38;;;18.00;89.32
8653;BME280;4364;52.426;9.424;2023-08-17T00:40:39;101477.59;;;17.94;89.85
8653;BME280;4364;52.426;9.424;2023-08-17T00:43:06;101475.38;;;17.96;89.49
8653;BME280;4364;52.426;9.424;2023-08-17T00:45:34;101466.41;;;17.90;90.31
8653;BME280;4364;52.426;9.424;2023-08-17T00:48:03;101468.91;;;18.01;89.81
8653;BME280;4364;52.426;9.424;2023-08-17T00:50:32;101470.97;;;17.95;90.70
8653;BME280;4364;52.426;9.424;2023-08-17T00:52:58;101462.91;;;17.99;91.13
8653;BME280;4364;52.426;9.424;2023-08-17T00:55:27;101460.66;;;18.01;91.33
8653;BME280;4364;52.426;9.424;2023-08-17T00:57:56;101461.94;;;17.94;92.00
8653;BME280;4364;52.426;9.424;2023-08-17T01:00:25;101467.94;;;17.96;92.01
8653;BME280;4364;52.426;9.424;2023-08-17T01:02:55;101459.97;;;17.95;92.04
8653;BME280;4364;52.426;9.424;2023-08-17T01:05:23;101457.34;;;17.90;93.37
8653;BME280;4364;52.426;9.424;2023-08-17T01:07:50;101463.63;;;17.76;94.92
8653;BME280;4364;52.426;9.424;2023-08-17T01:10:16;101459.56;;;17.74;94.71
8653;BME280;4364;52.426;9.424;2023-08-17T01:13:05;101460.09;;;17.76;95.61
8653;BME280;4364;52.426;9.424;2023-08-17T01:15:37;101460.69;;;17.73;95.97
8653;BME280;4364;52.426;9.424;2023-08-17T01:18:17;101460.28;;;17.66;96.77
8653;BME280;4364;52.426;9.424;2023-08-17T01:20:46;101468.84;;;17.64;97.54
8653;BME280;4364;52.426;9.424;2023-08-17T01:23:12;101461.41;;;17.65;98.17
8653;BME280;4364;52.426;9.424;2023-08-17T01:25:39;101463.44;;;17.59;98.91
8653;BME280;4364;52.426;9.424;2023-08-17T01:28:07;101461.09;;;17.52;99.71
8653;BME280;4364;52.426;9.424;2023-08-17T01:30:44;101461.00;;;17.57;99.38
8653;BME280;4364;52.426;9.424;2023-08-17T01:33:20;101457.94;;;17.45;100.00
8653;BME280;4364;52.426;9.424;2023-08-17T01:36:15;101451.03;;;17.48;100.00
8653;BME280;4364;52.426;9.424;2023-08-17T01:38:44;101449.50;;;17.41;100.00
8653;BME280;4364;52.426;9.424;2023-08-17T01:41:13;101461.59;;;17.40;100.00
8653;BME280;4364;52.426;9.424;2023-08-17T01:43:43;101453.84;;;17.29;100.00
8653;BME280;4364;52.426;9.424;2023-08-17T01:46:14;101454.16;;;17.27;100.00
8653;BME280;4364;52.426;9.424;2023-08-17T01:48:45;101458.84;;;17.40;100.00
8653;BME280;4364;52.426;9.424;2023-08-17T01:51:16;101459.34;;;17.29;100.00
8653;BME280;4364;52.426;9.424;2023-08-17T01:53:43;101461.19;;;17.33;100.00
8653;BME280;4364;52.426;9.424;2023-08-17T01:56:10;101456.50;;;17.34;100.00
8653;BME280;4364;52.426;9.424;2023-08-17T01:58:37;101456.59;;;17.29;100.00
8653;BME280;4364;52.426;9.424;2023-08-17T02:01:04;101458.75;;;17.32;100.00
8653;BME280;4364;52.426;9.424;2023-08-17T02:03:31;101459.75;;;17.22;100.00
8653;BME280;4364;52.426;9.424;2023-08-17T02:05:59;101458.03;;;17.26;100.00
8653;BME280;4364;52.426;9.424;2023-08-17T02:08:25;101466.19;;;17.17;100.00
8653;BME280;4364;52.426;9.424;2023-08-17T02:10:52;101465.63;;;17.15;100.00
8653;BME280;4364;52.426;9.424;2023-08-17T02:13:21;101465.84;;;17.19;100.00
8653;BME280;4364;52.426;9.424;2023-08-17T02:15:47;101469.94;;;17.21;100.00
8653;BME280;4364;52.426;9.424;2023-08-17T02:18:14;101461.00;;;17.30;100.00
8653;BME280;4364;52.426;9.424;2023-08-17T02:20:41;101459.16;;;17.25;100.00
8653;BME280;4364;52.426;9.424;2023-08-17T02:23:07;101454.44;;;17.26;100.00
8653;BME280;4364;52.426;9.424;2023-08-17T02:25:37;101452.09;;;17.19;100.00
8653;BME280;4364;52.426;9.424;2023-08-17T02:28:05;101446.41;;;17.15;100.00
8653;BME280;4364;52.426;9.424;2023-08-17T02:30:31;101451.19;;;17.10;100.00
8653;BME280;4364;52.426;9.424;2023-08-17T02:32:58;101436.75;;;17.18;100.00
8653;BME280;4364;52.426;9.424;2023-08-17T02:35:25;101432.88;;;17.05;100.00
8653;BME280;4364;52.426;9.424;2023-08-17T02:37:51;101433.47;;;17.02;100.00
8653;BME280;4364;52.426;9.424;2023-08-17T02:40:18;101430.13;;;17.05;100.00
8653;BME280;4364;52.426;9.424;2023-08-17T02:42:45;101422.25;;;16.98;100.00
8653;BME280;4364;52.426;9.424;2023-08-17T02:45:11;101427.06;;;16.93;100.00
8653;BME280;4364;52.426;9.424;2023-08-17T02:47:38;101417.78;;;16.89;100.00
8653;BME280;4364;52.426;9.424;2023-08-17T02:50:05;101403.03;;;16.84;100.00
8653;BME280;4364;52.426;9.424;2023-08-17T02:52:32;101407.53;;;16.75;100.00
8653;BME280;4364;52.426;9.424;2023-08-17T02:54:59;101405.31;;;16.77;100.00
8653;BME280;4364;52.426;9.424;2023-08-17T02:57:25;101401.84;;;16.72;100.00
8653;BME280;4364;52.426;9.424;2023-08-17T02:59:52;101402.59;;;16.77;100.00
8653;BME280;4364;52.426;9.424;2023-08-17T03:02:19;101390.03;;;16.71;100.00
8653;BME280;4364;52.426;9.424;2023-08-17T03:04:45;101383.13;;;16.74;100.00
8653;BME280;4364;52.426;9.424;2023-08-17T03:07:12;101385.97;;;16.68;100.00
8653;BME280;4364;52.426;9.424;2023-08-17T03:09:38;101374.84;;;16.60;100.00
8653;BME280;4364;52.426;9.424;2023-08-17T03:12:05;101379.44;;;16.51;100.00
8653;BME280;4364;52.426;9.424;2023-08-17T03:14:31;101378.00;;;16.53;100.00
8653;BME280;4364;52.426;9.424;2023-08-17T03:16:58;101378.59;;;16.50;100.00
8653;BME280;4364;52.426;9.424;2023-08-17T03:19:25;101373.31;;;16.54;100.00
8653;BME280;4364;52.426;9.424;2023-08-17T03:21:51;101359.38;;;16.50;100.00
8653;BME280;4364;52.426;9.424;2023-08-17T03:24:18;101362.13;;;16.50;100.00
8653;BME280;4364;52.426;9.424;2023-08-17T03:26:44;101360.28;;;16.45;100.00
8653;BME280;4364;52.426;9.424;2023-08-17T03:29:11;101361.31;;;16.49;100.00
8653;BME280;4364;52.426;9.424;2023-08-17T03:31:38;101355.03;;;16.49;100.00
8653;BME280;4364;52.426;9.424;2023-08-17T03:34:07;101357.84;;;16.44;100.00
8653;BME280;4364;52.426;9.424;2023-08-17T03:36:34;101353.38;;;16.48;100.00
8653;BME280;4364;52.426;9.424;2023-08-17T03:39:00;101366.28;;;16.47;100.00
8653;BME280;4364;52.426;9.424;2023-08-17T03:41:27;101359.75;;;16.43;100.00
8653;BME280;4364;52.426;9.424;2023-08-17T03:43:53;101355.72;;;16.55;100.00
8653;BME280;4364;52.426;9.424;2023-08-17T03:46:20;101361.63;;;16.48;100.00
8653;BME280;4364;52.426;9.424;2023-08-17T03:48:46;101359.06;;;16.52;100.00
8653;BME280;4364;52.426;9.424;2023-08-17T03:51:13;101364.34;;;16.48;100.00
8653;BME280;4364;52.426;9.424;2023-08-17T03:53:39;101364.88;;;16.50;100.00
8653;BME280;4364;52.426;9.424;2023-08-17T03:56:06;101365.38;;;16.52;100.00
8653;BME280;4364;52.426;9.424;2023-08-17T03:58:33;101358.19;;;16.56;100.00
8653;BME280;4364;52.426;9.424;2023-08-17T04:01:01;101362.38;;;16.67;100.00
8653;BME280;4364;52.426;9.424;2023-08-17T04:03:30;101357.28;;;16.61;100.00
8653;BME280;4364;52.426;9.424;2023-08-17T04:05:58;101361.53;;;16.53;100.00
8653;BME280;4364;52.426;9.424;2023-08-17T04:08:25;101368.44;;;16.51;100.00
8653;BME280;4364;52.426;9.424;2023-08-17T04:10:51;101380.44;;;16.55;100.00
8653;BME280;4364;52.426;9.424;2023-08-17T04:13:18;101380.66;;;16.58;100.00
8653;BME280;4364;52.426;9.424;2023-08-17T04:15:44;101391.25;;;16.65;100.00
8653;BME280;4364;52.426;9.424;2023-08-17T04:18:11;101383.22;;;16.68;100.00
8653;BME280;4364;52.426;9.424;2023-08-17T04:20:38;101390.13;;;16.66;100.00
8653;BME280;4364;52.426;9.424;2023-08-17T04:23:04;101395.63;;;16.66;100.00
8653;BME280;4364;52.426;9.424;2023-08-17T04:25:31;101390.94;;;16.66;100.00
8653;BME280;4364;52.426;9.424;2023-08-17T04:27:58;101388.84;;;16.77;100.00
8653;BME280;4364;52.426;9.424;2023-08-17T04:30:26;101398.50;;;16.75;100.00
8653;BME280;4364;52.426;9.424;2023-08-17T04:32:57;101394.28;;;16.63;100.00
8653;BME280;4364;52.426;9.424;2023-08-17T04:35:24;101401.84;;;16.72;100.00
8653;BME280;4364;52.426;9.424;2023-08-17T04:37:50;101401.53;;;16.73;100.00
8653;BME280;4364;52.426;9.424;2023-08-17T04:40:17;101407.63;;;16.70;100.00
8653;BME280;4364;52.426;9.424;2023-08-17T04:42:43;101399.19;;;16.80;100.00
8653;BME280;4364;52.426;9.424;2023-08-17T04:45:10;101399.00;;;16.77;100.00
8653;BME280;4364;52.426;9.424;2023-08-17T04:47:40;101405.31;;;16.77;100.00
8653;BME280;4364;52.426;9.424;2023-08-17T04:50:07;101404.28;;;16.73;100.00
8653;BME280;4364;52.426;9.424;2023-08-17T04:52:34;101404.69;;;16.80;100.00
8653;BME280;4364;52.426;9.424;2023-08-17T04:55:01;101404.63;;;16.85;100.00
8653;BME280;4364;52.426;9.424;2023-08-17T04:57:30;101401.88;;;16.85;100.00
8653;BME280;4364;52.426;9.424;2023-08-17T04:59:57;101408.22;;;16.86;100.00
8653;BME280;4364;52.426;9.424;2023-08-17T05:02:24;101404.88;;;16.89;100.00
8653;BME280;4364;52.426;9.424;2023-08-17T05:04:52;101404.03;;;16.89;100.00
8653;BME280;4364;52.426;9.424;2023-08-17T05:07:18;101401.59;;;16.87;100.00
8653;BME280;4364;52.426;9.424;2023-08-17T05:09:45;101414.13;;;16.93;100.00
8653;BME280;4364;52.426;9.424;2023-08-17T05:12:12;101413.63;;;16.91;100.00
8653;BME280;4364;52.426;9.424;2023-08-17T05:14:39;101412.47;;;16.92;100.00
8653;BME280;4364;52.426;9.424;2023-08-17T05:17:06;101413.31;;;16.93;100.00
8653;BME280;4364;52.426;9.424;2023-08-17T05:19:33;101422.78;;;17.00;100.00
8653;BME280;4364;52.426;9.424;2023-08-17T05:21:59;101422.47;;;17.02;100.00
8653;BME280;4364;52.426;9.424;2023-08-17T05:24:26;101421.56;;;17.07;100.00
8653;BME280;4364;52.426;9.424;2023-08-17T05:26:54;101426.34;;;17.01;100.00
8653;BME280;4364;52.426;9.424;2023-08-17T05:29:20;101420.06;;;17.14;100.00
8653;BME280;4364;52.426;9.424;2023-08-17T05:31:47;101421.47;;;17.12;100.00
8653;BME280;4364;52.426;9.424;2023-08-17T05:34:13;101422.69;;;17.06;100.00
8653;BME280;4364;52.426;9.424;2023-08-17T05:36:40;101431.75;;;17.20;100.00
8653;BME280;4364;52.426;9.424;2023-08-17T05:39:07;101429.00;;;17.20;100.00
8653;BME280;4364;52.426;9.424;2023-08-17T05:41:34;101427.72;;;17.17;100.00
8653;BME280;4364;52.426;9.424;2023-08-17T05:44:00;101432.69;;;17.29;100.00
8653;BME280;4364;52.426;9.424;2023-08-17T05:46:27;101436.25;;;17.30;100.00
8653;BME280;4364;52.426;9.424;2023-08-17T05:48:54;101434.41;;;17.25;100.00
8653;BME280;4364;52.426;9.424;2023-08-17T05:51:20;101424.75;;;17.28;100.00
8653;BME280;4364;52.426;9.424;2023-08-17T05:53:47;101422.00;;;17.28;100.00
8653;BME280;4364;52.426;9.424;2023-08-17T05:56:14;101419.84;;;17.38;100.00
8653;BME280;4364;52.426;9.424;2023-08-17T05:58:40;101430.56;;;17.40;100.00
8653;BME280;4364;52.426;9.424;2023-08-17T06:01:08;101431.66;;;17.39;100.00
8653;BME280;4364;52.426;9.424;2023-08-17T06:03:36;101429.84;;;17.34;100.00
8653;BME280;4364;52.426;9.424;2023-08-17T06:06:04;101430.84;;;17.38;100.00
8653;BME280;4364;52.426;9.424;2023-08-17T06:08:32;101435.53;;;17.38;100.00
8653;BME280;4364;52.426;9.424;2023-08-17T06:10:58;101429.13;;;17.43;100.00
8653;BME280;4364;52.426;9.424;2023-08-17T06:13:26;101431.47;;;17.49;100.00
8653;BME280;4364;52.426;9.424;2023-08-17T06:15:53;101424.34;;;17.48;100.00
8653;BME280;4364;52.426;9.424;2023-08-17T06:18:23;101425.97;;;17.49;100.00
8653;BME280;4364;52.426;9.424;2023-08-17T06:20:49;101438.19;;;17.43;100.00
8653;BME280;4364;52.426;9.424;2023-08-17T06:23:19;101430.25;;;17.41;100.00
8653;BME280;4364;52.426;9.424;2023-08-17T06:25:46;101434.63;;;17.43;100.00
8653;BME280;4364;52.426;9.424;2023-08-17T06:28:13;101433.91;;;17.37;100.00
8653;BME280;4364;52.426;9.424;2023-08-17T06:30:39;101433.81;;;17.42;100.00
8653;BME280;4364;52.426;9.424;2023-08-17T06:33:06;101441.84;;;17.38;100.00
8653;BME280;4364;52.426;9.424;2023-08-17T06:35:33;101440.03;;;17.48;100.00
8653;BME280;4364;52.426;9.424;2023-08-17T06:37:59;101435.34;;;17.48;100.00
8653;BME280;4364;52.426;9.424;2023-08-17T06:40:27;101437.59;;;17.46;100.00
8653;BME280;4364;52.426;9.424;2023-08-17T06:42:53;101437.38;;;17.43;100.00
8653;BME280;4364;52.426;9.424;2023-08-17T06:45:20;101434.63;;;17.43;100.00
8653;BME280;4364;52.426;9.424;2023-08-17T06:47:49;101435.34;;;17.48;100.00
8653;BME280;4364;52.426;9.424;2023-08-17T06:50:15;101430.25;;;17.55;100.00
8653;BME280;4364;52.426;9.424;2023-08-17T06:52:42;101430.03;;;17.52;100.00
8653;BME280;4364;52.426;9.424;2023-08-17T06:55:09;101432.69;;;17.57;100.00
8653;BME280;4364;52.426;9.424;2023-08-17T06:57:37;101426.69;;;17.55;100.00
8653;BME280;4364;52.426;9.424;2023-08-17T07:00:04;101431.88;;;17.56;100.00
8653;BME280;4364;52.426;9.424;2023-08-17T07:02:34;101430.25;;;17.55;100.00
8653;BME280;4364;52.426;9.424;2023-08-17T07:05:18;101430.25;;;17.69;100.00
8653;BME280;4364;52.426;9.424;2023-08-17T07:07:45;101436.34;;;17.66;100.00
8653;BME280;4364;52.426;9.424;2023-08-17T07:10:12;101436.63;;;17.78;100.00
8653;BME280;4364;52.426;9.424;2023-08-17T07:12:39;101432.56;;;17.76;100.00
8653;BME280;4364;52.426;9.424;2023-08-17T07:15:06;101433.81;;;17.70;100.00
8653;BME280;4364;52.426;9.424;2023-08-17T07:17:34;101431.75;;;17.75;100.00
8653;BME280;4364;52.426;9.424;2023-08-17T07:20:00;101431.03;;;17.84;100.00
8653;BME280;4364;52.426;9.424;2023-08-17T07:22:30;101441.94;;;17.89;100.00
8653;BME280;4364;52.426;9.424;2023-08-17T07:24:57;101437.28;;;17.89;100.00
8653;BME280;4364;52.426;9.424;2023-08-17T07:27:23;101436.44;;;18.03;100.00
8653;BME280;4364;52.426;9.424;2023-08-17T07:29:50;101431.44;;;18.05;100.00
8653;BME280;4364;52.426;9.424;2023-08-17T07:32:17;101436.94;;;18.05;100.00
8653;BME280;4364;52.426;9.424;2023-08-17T07:34:44;101439.19;;;18.03;100.00
8653;BME280;4364;52.426;9.424;2023-08-17T07:37:10;101445.19;;;18.05;100.00
8653;BME280;4364;52.426;9.424;2023-08-17T07:39:41;101449.66;;;18.01;100.00
8653;BME280;4364;52.426;9.424;2023-08-17T07:42:08;101449.97;;;17.99;100.00
8653;BME280;4364;52.426;9.424;2023-08-17T07:44:35;101447.13;;;18.04;100.00
8653;BME280;4364;52.426;9.424;2023-08-17T07:47:02;101455.16;;;18.01;100.00
8653;BME280;4364;52.426;9.424;2023-08-17T07:49:28;101458.03;;;17.95;100.00
8653;BME280;4364;52.426;9.424;2023-08-17T07:51:58;101456.41;;;17.94;100.00
8653;BME280;4364;52.426;9.424;2023-08-17T07:54:25;101458.16;;;17.90;100.00
8653;BME280;4364;52.426;9.424;2023-08-17T07:56:52;101464.38;;;17.96;100.00
8653;BME280;4364;52.426;9.424;2023-08-17T07:59:18;101467.13;;;17.96;100.00
8653;BME280;4364;52.426;9.424;2023-08-17T08:01:45;101469.34;;;17.94;100.00
8653;BME280;4364;52.426;9.424;2023-08-17T08:04:12;101465.69;;;17.85;100.00
8653;BME280;4364;52.426;9.424;2023-08-17T08:06:38;101472.31;;;17.98;100.00
8653;BME280;4364;52.426;9.424;2023-08-17T08:09:05;101470.88;;;17.86;100.00
8653;BME280;4364;52.426;9.424;2023-08-17T08:11:32;101473.84;;;17.90;100.00
8653;BME280;4364;52.426;9.424;2023-08-17T08:14:01;101475.50;;;17.91;100.00
8653;BME280;4364;52.426;9.424;2023-08-17T08:16:28;101478.53;;;17.89;100.00
8653;BME280;4364;52.426;9.424;2023-08-17T08:18:57;101478.53;;;17.89;100.00
8653;BME280;4364;52.426;9.424;2023-08-17T08:21:24;101481.38;;;17.84;100.00
8653;BME280;4364;52.426;9.424;2023-08-17T08:23:50;101481.06;;;17.72;100.00
8653;BME280;4364;52.426;9.424;2023-08-17T08:26:17;101473.22;;;17.65;100.00
8653;BME280;4364;52.426;9.424;2023-08-17T08:28:43;101476.38;;;17.72;100.00
8653;BME280;4364;52.426;9.424;2023-08-17T08:31:10;101474.66;;;17.76;100.00
8653;BME280;4364;52.426;9.424;2023-08-17T08:33:37;101482.81;;;17.68;100.00
8653;BME280;4364;52.426;9.424;2023-08-17T08:36:04;101479.84;;;17.64;100.00
8653;BME280;4364;52.426;9.424;2023-08-17T08:38:32;101475.06;;;17.56;100.00
8653;BME280;4364;52.426;9.424;2023-08-17T08:40:59;101477.91;;;17.51;100.00
8653;BME280;4364;52.426;9.424;2023-08-17T08:43:26;101478.13;;;17.54;100.00
8653;BME280;4364;52.426;9.424;2023-08-17T08:45:54;101476.69;;;17.43;100.00
8653;BME280;4364;52.426;9.424;2023-08-17T08:48:22;101473.53;;;17.36;100.00
8653;BME280;4364;52.426;9.424;2023-08-17T08:50:54;101474.22;;;17.28;100.00
8653;BME280;4364;52.426;9.424;2023-08-17T08:53:28;101482.28;;;17.24;100.00
8653;BME280;4364;52.426;9.424;2023-08-17T08:56:03;101474.50;;;17.12;100.00
8653;BME280;4364;52.426;9.424;2023-08-17T08:58:31;101471.66;;;17.17;100.00
8653;BME280;4364;52.426;9.424;2023-08-17T09:00:58;101472.47;;;17.18;100.00
8653;BME280;4364;52.426;9.424;2023-08-17T09:03:25;101473.06;;;17.01;100.00
8653;BME280;4364;52.426;9.424;2023-08-17T09:05:52;101481.22;;;17.06;100.00
8653;BME280;4364;52.426;9.424;2023-08-17T09:08:24;101478.47;;;17.06;100.00
8653;BME280;4364;52.426;9.424;2023-08-17T09:10:53;101487.72;;;17.10;100.00
8653;BME280;4364;52.426;9.424;2023-08-17T09:13:19;101479.69;;;17.14;100.00
8653;BME280;4364;52.426;9.424;2023-08-17T09:15:46;101478.28;;;17.16;100.00
8653;BME280;4364;52.426;9.424;2023-08-17T09:18:13;101479.97;;;17.12;100.00
8653;BME280;4364;52.426;9.424;2023-08-17T09:20:41;101471.13;;;17.15;100.00
8653;BME280;4364;52.426;9.424;2023-08-17T09:25:41;101479.47;;;17.10;100.00
8653;BME280;4364;52.426;9.424;2023-08-17T09:28:18;101480.47;;;17.00;100.00
8653;BME280;4364;52.426;9.424;2023-08-17T09:30:57;101474.56;;;16.93;100.00
8653;BME280;4364;52.426;9.424;2023-08-17T09:33:30;101474.34;;;16.90;100.00
8653;BME280;4364;52.426;9.424;2023-08-17T09:35:58;101477.38;;;16.88;100.00
8653;BME280;4364;52.426;9.424;2023-08-17T09:38:26;101480.13;;;16.88;100.00
8653;BME280;4364;52.426;9.424;2023-08-17T09:40:53;101476.88;;;16.86;100.00
8653;BME280;4364;52.426;9.424;2023-08-17T09:43:20;101481.84;;;16.84;100.00
8653;BME280;4364;52.426;9.424;2023-08-17T09:45:49;101469.28;;;16.78;100.00
8653;BME280;4364;52.426;9.424;2023-08-17T09:48:19;101467.50;;;16.87;100.00
8653;BME280;4364;52.426;9.424;2023-08-17T09:50:47;101463.69;;;17.02;100.00
8653;BME280;4364;52.426;9.424;2023-08-17T09:53:18;101463.69;;;17.02;100.00
8653;BME280;4364;52.426;9.424;2023-08-17T09:55:45;101468.59;;;17.19;100.00
8653;BME280;4364;52.426;9.424;2023-08-17T09:58:13;101459.66;;;17.27;100.00
8653;BME280;4364;52.426;9.424;2023-08-17T10:00:44;101466.50;;;17.44;100.00
8653;BME280;4364;52.426;9.424;2023-08-17T10:03:18;101476.88;;;17.47;100.00
8653;BME280;4364;52.426;9.424;2023-08-17T10:05:56;101466.91;;;17.51;100.00
8653;BME280;4364;52.426;9.424;2023-08-17T10:08:54;101466.09;;;17.36;100.00
8653;BME280;4364;52.426;9.424;2023-08-17T10:11:21;101461.38;;;17.23;100.00
8653;BME280;4364;52.426;9.424;2023-08-17T10:13:56;101468.69;;;17.14;100.00
8653;BME280;4364;52.426;9.424;2023-08-17T10:16:32;101472.06;;;17.11;100.00
8653;BME280;4364;52.426;9.424;2023-08-17T10:19:15;101475.22;;;17.18;100.00
8653;BME280;4364;52.426;9.424;2023-08-17T10:21:48;101470.84;;;17.17;100.00
8653;BME280;4364;52.426;9.424;2023-08-17T10:24:18;101464.13;;;17.09;100.00
8653;BME280;4364;52.426;9.424;2023-08-17T10:26:45;101464.84;;;17.15;100.00
8653;BME280;4364;52.426;9.424;2023-08-17T10:29:13;101465.94;;;17.14;100.00
8653;BME280;4364;52.426;9.424;2023-08-17T10:31:45;101477.03;;;17.09;100.00
8653;BME280;4364;52.426;9.424;2023-08-17T10:34:13;101480.47;;;17.00;100.00
8653;BME280;4364;52.426;9.424;2023-08-17T10:36:41;101475.59;;;16.97;100.00
8653;BME280;4364;52.426;9.424;2023-08-17T10:39:20;101478.84;;;16.99;100.00
8653;BME280;4364;52.426;9.424;2023-08-17T10:41:49;101477.38;;;16.88;100.00
8653;BME280;4364;52.426;9.424;2023-08-17T10:44:45;101471.00;;;16.93;100.00
8653;BME280;4364;52.426;9.424;2023-08-17T10:49:49;101476.09;;;16.99;100.00
8653;BME280;4364;52.426;9.424;2023-08-17T10:52:24;101475.06;;;16.95;100.00
8653;BME280;4364;52.426;9.424;2023-08-17T10:54:53;101479.56;;;17.05;100.00
8653;BME280;4364;52.426;9.424;2023-08-17T10:57:36;101485.38;;;17.03;100.00
8653;BME280;4364;52.426;9.424;2023-08-17T11:02:54;101487.00;;;17.04;100.00
8653;BME280;4364;52.426;9.424;2023-08-17T11:05:40;101491.59;;;17.09;100.00
8653;BME280;4364;52.426;9.424;2023-08-17T11:08:12;101491.31;;;17.11;100.00
8653;BME280;4364;52.426;9.424;2023-08-17T11:11:11;101497.56;;;16.97;100.00
8653;BME280;4364;52.426;9.424;2023-08-17T11:13:39;101488.16;;;16.84;100.00
8653;BME280;4364;52.426;9.424;2023-08-17T11:16:08;101497.34;;;16.75;100.00
8653;BME280;4364;52.426;9.424;2023-08-17T11:18:35;101495.31;;;16.80;100.00
8653;BME280;4364;52.426;9.424;2023-08-17T11:21:03;101498.38;;;16.79;100.00
8653;BME280;4364;52.426;9.424;2023-08-17T11:23:31;101505.75;;;16.64;100.00
8653;BME280;4364;52.426;9.424;2023-08-17T11:25:58;101510.06;;;16.71;100.00
8653;BME280;4364;52.426;9.424;2023-08-17T11:28:25;101507.81;;;16.73;100.00
8653;BME280;4364;52.426;9.424;2023-08-17T11:30:59;101511.38;;;16.73;100.00
8653;BME280;4364;52.426;9.424;2023-08-17T11:33:27;101518.81;;;16.73;100.00
8653;BME280;4364;52.426;9.424;2023-08-17T11:35:55;101511.16;;;16.70;100.00
8653;BME280;4364;52.426;9.424;2023-08-17T11:38:21;101515.56;;;16.71;100.00
8653;BME280;4364;52.426;9.424;2023-08-17T11:40:49;101523.63;;;16.81;100.00
8653;BME280;4364;52.426;9.424;2023-08-17T11:43:16;101522.44;;;16.68;100.00
8653;BME280;4364;52.426;9.424;2023-08-17T11:45:47;101518.34;;;16.65;100.00
8653;BME280;4364;52.426;9.424;2023-08-17T11:48:14;101520.97;;;16.57;100.00
8653;BME280;4364;52.426;9.424;2023-08-17T11:50:43;101515.63;;;16.46;100.00
8653;BME280;4364;52.426;9.424;2023-08-17T11:53:10;101526.59;;;16.46;100.00
8653;BME280;4364;52.426;9.424;2023-08-17T11:55:37;101517.41;;;16.56;100.00
8653;BME280;4364;52.426;9.424;2023-08-17T11:58:04;101521.34;;;16.50;100.00
8653;BME280;4364;52.426;9.424;2023-08-17T12:00:39;101517.19;;;16.53;100.00
8653;BME280;4364;52.426;9.424;2023-08-17T12:03:06;101520.44;;;16.55;100.00
8653;BME280;4364;52.426;9.424;2023-08-17T12:05:33;101529.88;;;16.67;100.00
8653;BME280;4364;52.426;9.424;2023-08-17T12:08:00;101522.16;;;16.70;100.00
8653;BME280;4364;52.426;9.424;2023-08-17T12:10:31;101520.22;;;16.70;100.00
8653;BME280;4364;52.426;9.424;2023-08-17T12:13:01;101523.25;;;16.68;100.00
8653;BME280;4364;52.426;9.424;2023-08-17T12:15:32;101515.09;;;16.63;100.00
8653;BME280;4364;52.426;9.424;2023-08-17T12:18:01;101517.75;;;16.68;100.00
8653;BME280;4364;52.426;9.424;2023-08-17T12:20:28;101516.94;;;16.68;100.00
8653;BME280;4364;52.426;9.424;2023-08-17T12:22:57;101517.47;;;16.70;100.00
8653;BME280;4364;52.426;9.424;2023-08-17T12:25:25;101513.31;;;16.73;100.00
8653;BME280;4364;52.426;9.424;2023-08-17T12:27:52;101516.75;;;16.64;100.00
8653;BME280;4364;52.426;9.424;2023-08-17T12:30:29;101512.19;;;16.74;100.00
8653;BME280;4364;52.426;9.424;2023-08-17T12:32:58;101519.63;;;16.73;100.00
8653;BME280;4364;52.426;9.424;2023-08-17T12:35:25;101516.94;;;16.87;100.00
8653;BME280;4364;52.426;9.424;2023-08-17T12:37:53;101523.94;;;16.79;100.00
8653;BME280;4364;52.426;9.424;2023-08-17T12:40:21;101521.69;;;16.81;100.00
8653;BME280;4364;52.426;9.424;2023-08-17T12:42:47;101521.84;;;16.90;100.00
8653;BME280;4364;52.426;9.424;2023-08-17T12:45:14;101517.53;;;17.03;100.00
8653;BME280;4364;52.426;9.424;2023-08-17T12:47:41;101515.28;;;17.05;100.00
8653;BME280;4364;52.426;9.424;2023-08-17T12:50:08;101516.72;;;17.02;100.00
8653;BME280;4364;52.426;9.424;2023-08-17T12:52:35;101520.28;;;17.03;100.00
8653;BME280;4364;52.426;9.424;2023-08-17T12:55:03;101518.16;;;17.14;100.00
8653;BME280;4364;52.426;9.424;2023-08-17T12:57:29;101515.31;;;17.19;100.00
8653;BME280;4364;52.426;9.424;2023-08-17T12:59:56;101518.44;;;17.12;100.00
8653;BME280;4364;52.426;9.424;2023-08-17T13:02:23;101513.88;;;17.08;100.00
8653;BME280;4364;52.426;9.424;2023-08-17T13:04:49;101516.72;;;17.02;100.00
8653;BME280;4364;52.426;9.424;2023-08-17T13:07:16;101506.84;;;17.01;100.00
8653;BME280;4364;52.426;9.424;2023-08-17T13:09:43;101502.97;;;17.02;100.00
8653;BME280;4364;52.426;9.424;2023-08-17T13:12:12;101503.69;;;17.08;100.00
8653;BME280;4364;52.426;9.424;2023-08-17T13:14:39;101505.84;;;17.11;100.00
8653;BME280;4364;52.426;9.424;2023-08-17T13:17:06;101509.44;;;17.26;100.00